createdAt,value
2022-08-30T00:00:06.510Z,8.00
2022-08-30T00:01:06.789Z,8.20
2022-08-30T00:02:07.094Z,6.20
2022-08-30T00:03:07.501Z,5.70
2022-08-30T00:04:07.666Z,6.40
2022-08-30T00:05:07.957Z,6.20
2022-08-30T00:06:08.258Z,5.90
2022-08-30T00:07:08.558Z,7.20
2022-08-30T00:08:08.857Z,6.90
2022-08-30T00:09:09.158Z,5.40
2022-08-30T00:10:09.436Z,6.50
2022-08-30T00:11:09.742Z,5.30
2022-08-30T00:12:10.063Z,4.70
2022-08-30T00:13:10.332Z,7.90
2022-08-30T00:14:10.607Z,6.90
2022-08-30T00:15:10.911Z,7.30
2022-08-30T00:16:11.289Z,6.70
2022-08-30T00:17:11.566Z,5.10
2022-08-30T00:18:11.848Z,7.90
2022-08-30T00:19:12.138Z,5.90
2022-08-30T00:20:12.449Z,7.90
2022-08-30T00:21:12.741Z,5.00
2022-08-30T00:22:13.061Z,8.00
2022-08-30T00:23:13.327Z,5.60
2022-08-30T00:24:13.610Z,6.70
2022-08-30T00:25:13.889Z,5.90
2022-08-30T00:26:14.179Z,4.60
2022-08-30T00:27:14.488Z,5.30
2022-08-30T00:28:14.741Z,6.80
2022-08-30T00:29:15.051Z,7.40
2022-08-30T00:30:15.338Z,8.20
2022-08-30T00:31:15.779Z,5.70
2022-08-30T00:32:15.930Z,5.70
2022-08-30T00:33:16.412Z,5.70
2022-08-30T00:34:16.449Z,8.90
2022-08-30T00:35:16.755Z,6.90
2022-08-30T00:36:17.054Z,6.70
2022-08-30T00:37:17.438Z,7.20
2022-08-30T00:38:17.680Z,5.90
2022-08-30T00:39:17.970Z,7.20
2022-08-30T00:40:18.306Z,6.20
2022-08-30T00:41:18.560Z,5.60
2022-08-30T00:42:18.869Z,6.10
2022-08-30T00:43:19.495Z,5.30
2022-08-30T00:44:19.414Z,5.50
2022-08-30T00:45:19.701Z,5.70
2022-08-30T00:46:20.049Z,5.10
2022-08-30T00:47:20.363Z,6.00
2022-08-30T00:48:20.617Z,7.00
2022-08-30T00:49:20.914Z,5.40
2022-08-30T00:50:21.214Z,8.60
2022-08-30T00:51:21.516Z,6.30
2022-08-30T00:52:21.811Z,8.90
2022-08-30T00:53:22.115Z,5.30
2022-08-30T00:54:22.415Z,7.80
2022-08-30T00:55:22.661Z,4.50
2022-08-30T00:56:22.967Z,7.40
2022-08-30T00:57:23.280Z,5.40
2022-08-30T00:58:23.522Z,6.60
2022-08-30T00:59:23.812Z,8.40
2022-08-30T01:00:24.124Z,6.10
2022-08-30T01:01:25.309Z,5.60
2022-08-30T01:02:24.814Z,4.70
2022-08-30T01:03:25.072Z,6.90
2022-08-30T01:04:25.364Z,5.80
2022-08-30T01:05:25.666Z,5.60
2022-08-30T01:06:25.966Z,7.30
2022-08-30T01:07:27.223Z,4.90
2022-08-30T01:08:26.546Z,4.80
2022-08-30T01:09:26.794Z,6.70
2022-08-30T01:10:27.093Z,6.00
2022-08-30T01:11:27.396Z,7.10
2022-08-30T01:12:27.807Z,8.10
2022-08-30T01:13:27.933Z,5.90
2022-08-30T01:14:28.224Z,5.20
2022-08-30T01:15:28.530Z,7.70
2022-08-30T01:16:28.745Z,8.80
2022-08-30T01:17:28.996Z,5.50
2022-08-30T01:18:29.242Z,8.20
2022-08-30T01:19:29.547Z,4.60
2022-08-30T01:20:29.845Z,6.40
2022-08-30T01:21:31.203Z,7.40
2022-08-30T01:22:30.483Z,5.10
2022-08-30T01:23:30.748Z,4.90
2022-08-30T01:24:31.048Z,6.20
2022-08-30T01:25:31.356Z,6.50
2022-08-30T01:26:31.635Z,6.00
2022-08-30T01:27:31.943Z,5.00
2022-08-30T01:28:32.247Z,4.80
2022-08-30T01:29:32.538Z,6.30
2022-08-30T01:30:32.864Z,4.80
2022-08-30T01:31:33.105Z,6.20
2022-08-30T01:32:33.429Z,5.90
2022-08-30T01:33:33.699Z,8.30
2022-08-30T01:34:33.999Z,5.50
2022-08-30T01:35:34.298Z,6.00
2022-08-30T01:36:34.601Z,8.30
2022-08-30T01:37:34.897Z,6.00
2022-08-30T01:38:35.186Z,4.40
2022-08-30T01:39:35.498Z,6.70
2022-08-30T01:40:35.845Z,7.70
2022-08-30T01:41:36.088Z,5.50
2022-08-30T01:42:36.420Z,4.30
2022-08-30T01:43:36.690Z,5.40
2022-08-30T01:44:36.962Z,7.10
2022-08-30T01:45:37.309Z,7.20
2022-08-30T01:46:37.550Z,5.10
2022-08-30T01:47:37.810Z,4.20
2022-08-30T01:48:38.113Z,5.30
2022-08-30T01:49:38.408Z,6.00
2022-08-30T01:50:38.707Z,5.90
2022-08-30T01:51:38.981Z,5.40
2022-08-30T01:52:39.279Z,6.70
2022-08-30T01:53:39.517Z,5.70
2022-08-30T01:54:39.829Z,8.10
2022-08-30T01:55:40.129Z,7.20
2022-08-30T01:56:40.417Z,5.80
2022-08-30T01:57:40.726Z,5.80
2022-08-30T01:58:41.030Z,5.10
2022-08-30T01:59:41.308Z,5.60
2022-08-30T02:00:41.616Z,6.20
2022-08-30T02:01:41.974Z,4.90
2022-08-30T02:02:42.262Z,5.50
2022-08-30T02:03:42.576Z,6.00
2022-08-30T02:04:42.852Z,6.00
2022-08-30T02:05:43.102Z,6.20
2022-08-30T02:06:43.413Z,6.10
2022-08-30T02:07:43.732Z,6.70
2022-08-30T02:08:43.978Z,6.80
2022-08-30T02:09:44.285Z,8.10
2022-08-30T02:10:44.573Z,4.90
2022-08-30T02:11:44.879Z,7.30
2022-08-30T02:12:45.180Z,6.30
2022-08-30T02:13:45.472Z,6.20
2022-08-30T02:14:45.759Z,5.40
2022-08-30T02:15:46.051Z,4.10
2022-08-30T02:16:46.363Z,7.40
2022-08-30T02:17:46.661Z,5.30
2022-08-30T02:18:46.900Z,7.90
2022-08-30T02:19:47.192Z,5.50
2022-08-30T02:20:47.481Z,6.10
2022-08-30T02:21:47.770Z,6.80
2022-08-30T02:22:49.211Z,5.50
2022-08-30T02:23:48.374Z,4.50
2022-08-30T02:24:48.674Z,5.50
2022-08-30T02:25:48.971Z,5.50
2022-08-30T02:26:49.274Z,6.10
2022-08-30T02:27:49.600Z,6.50
2022-08-30T02:28:50.478Z,7.00
2022-08-30T02:29:50.179Z,9.40
2022-08-30T02:30:50.531Z,6.40
2022-08-30T02:31:50.784Z,5.00
2022-08-30T02:32:51.142Z,6.40
2022-08-30T02:33:51.383Z,5.90
2022-08-30T02:34:51.709Z,5.90
2022-08-30T02:35:51.975Z,3.90
2022-08-30T02:36:52.232Z,5.30
2022-08-30T02:37:52.543Z,5.20
2022-08-30T02:38:52.833Z,5.70
2022-08-30T02:39:53.134Z,4.80
2022-08-30T02:40:53.445Z,7.40
2022-08-30T02:41:53.733Z,3.60
2022-08-30T02:42:54.042Z,5.40
2022-08-30T02:43:54.305Z,5.20
2022-08-30T02:44:54.605Z,7.00
2022-08-30T02:45:54.923Z,7.00
2022-08-30T02:46:55.197Z,5.70
2022-08-30T02:47:55.503Z,5.50
2022-08-30T02:48:55.793Z,6.50
2022-08-30T02:49:56.096Z,7.50
2022-08-30T02:50:56.397Z,9.10
2022-08-30T02:51:56.696Z,6.20
2022-08-30T02:52:56.995Z,6.10
2022-08-30T02:53:57.282Z,6.80
2022-08-30T02:54:57.571Z,4.40
2022-08-30T02:55:57.943Z,5.80
2022-08-30T02:56:58.084Z,9.20
2022-08-30T02:57:58.397Z,6.30
2022-08-30T02:58:58.664Z,4.30
2022-08-30T02:59:58.968Z,6.30
2022-08-30T03:00:59.315Z,8.40
2022-08-30T03:01:59.568Z,7.30
2022-08-30T03:02:59.864Z,6.30
2022-08-30T03:04:00.260Z,5.70
2022-08-30T03:05:00.395Z,7.10
2022-08-30T03:06:00.705Z,5.70
2022-08-30T03:07:01.017Z,8.00
2022-08-30T03:08:01.318Z,7.30
2022-08-30T03:09:01.605Z,5.20
2022-08-30T03:10:01.909Z,5.60
2022-08-30T03:11:02.196Z,5.90
2022-08-30T03:12:02.501Z,6.10
2022-08-30T03:13:02.819Z,4.30
2022-08-30T03:14:03.080Z,6.70
2022-08-30T03:15:03.365Z,6.80
2022-08-30T03:16:03.687Z,6.80
2022-08-30T03:17:03.978Z,6.80
2022-08-30T03:18:04.287Z,6.10
2022-08-30T03:19:04.588Z,8.50
2022-08-30T03:20:04.889Z,5.30
2022-08-30T03:21:05.196Z,5.10
2022-08-30T03:22:05.496Z,6.50
2022-08-30T03:23:05.827Z,5.20
2022-08-30T03:24:06.087Z,6.90
2022-08-30T03:25:06.388Z,5.20
2022-08-30T03:26:06.684Z,5.70
2022-08-30T03:27:06.987Z,5.10
2022-08-30T03:28:07.318Z,5.80
2022-08-30T03:29:07.571Z,5.10
2022-08-30T03:30:07.867Z,6.30
2022-08-30T03:31:08.148Z,5.90
2022-08-30T03:32:08.481Z,5.70
2022-08-30T03:33:08.805Z,5.60
2022-08-30T03:34:09.060Z,6.20
2022-08-30T03:35:09.396Z,5.00
2022-08-30T03:36:09.665Z,8.80
2022-08-30T03:37:09.948Z,5.80
2022-08-30T03:38:10.249Z,6.90
2022-08-30T03:39:10.551Z,5.90
2022-08-30T03:40:10.926Z,7.00
2022-08-30T03:41:11.203Z,7.20
2022-08-30T03:42:11.511Z,5.50
2022-08-30T03:43:11.826Z,6.60
2022-08-30T03:44:12.087Z,6.00
2022-08-30T03:45:12.369Z,6.60
2022-08-30T03:46:12.693Z,6.90
2022-08-30T03:47:12.962Z,5.80
2022-08-30T03:48:13.251Z,7.50
2022-08-30T03:49:13.518Z,5.60
2022-08-30T03:50:13.799Z,5.50
2022-08-30T03:51:14.089Z,7.20
2022-08-30T03:52:14.379Z,6.00
2022-08-30T03:53:14.720Z,6.70
2022-08-30T03:54:14.969Z,8.20
2022-08-30T03:55:15.269Z,6.70
2022-08-30T03:56:15.565Z,4.90
2022-08-30T03:57:19.915Z,5.20
2022-08-30T03:58:19.140Z,5.50
2022-08-30T03:59:16.396Z,6.40
2022-08-30T04:00:16.693Z,4.30
2022-08-30T04:01:17.039Z,9.30
2022-08-30T04:02:17.362Z,5.30
2022-08-30T04:03:17.749Z,7.50
2022-08-30T04:04:20.868Z,15.60
2022-08-30T04:05:18.731Z,7.20
2022-08-30T04:06:18.450Z,8.70
2022-08-30T04:07:18.771Z,6.00
2022-08-30T04:08:19.105Z,6.80
2022-08-30T04:09:19.413Z,6.00
2022-08-30T04:10:19.710Z,6.60
2022-08-30T04:11:20.020Z,7.40
2022-08-30T04:12:22.686Z,5.30
2022-08-30T04:13:20.571Z,7.70
2022-08-30T04:14:20.892Z,7.80
2022-08-30T04:15:21.200Z,6.30
2022-08-30T04:16:21.613Z,4.60
2022-08-30T04:17:21.756Z,10.00
2022-08-30T04:18:22.092Z,4.90
2022-08-30T04:19:22.406Z,6.30
2022-08-30T04:20:22.725Z,6.10
2022-08-30T04:21:23.037Z,6.90
2022-08-30T04:22:23.305Z,5.50
2022-08-30T04:23:23.643Z,8.90
2022-08-30T04:24:23.915Z,9.50
2022-08-30T04:25:24.222Z,6.70
2022-08-30T04:26:27.654Z,4.70
2022-08-30T04:27:25.785Z,6.90
2022-08-30T04:28:25.145Z,5.10
2022-08-30T04:29:25.422Z,6.70
2022-08-30T04:30:25.706Z,6.50
2022-08-30T04:31:26.046Z,6.70
2022-08-30T04:32:26.314Z,6.80
2022-08-30T04:33:26.655Z,6.30
2022-08-30T04:34:26.930Z,6.90
2022-08-30T04:35:27.273Z,6.40
2022-08-30T04:36:27.552Z,6.90
2022-08-30T04:37:27.884Z,8.30
2022-08-30T04:38:30.472Z,6.20
2022-08-30T04:39:28.474Z,7.50
2022-08-30T04:40:28.823Z,7.70
2022-08-30T04:41:29.083Z,8.30
2022-08-30T04:42:29.403Z,7.90
2022-08-30T04:43:29.777Z,8.00
2022-08-30T04:44:30.067Z,7.80
2022-08-30T04:45:30.460Z,10.30
2022-08-30T04:46:30.638Z,7.90
2022-08-30T04:47:30.968Z,12.10
2022-08-30T04:48:31.218Z,8.70
2022-08-30T04:49:31.507Z,7.80
2022-08-30T04:50:31.846Z,11.20
2022-08-30T04:51:32.063Z,7.50
2022-08-30T04:52:32.398Z,10.30
2022-08-30T04:53:32.652Z,9.30
2022-08-30T04:54:32.935Z,7.40
2022-08-30T04:55:33.278Z,10.00
2022-08-30T04:56:33.611Z,10.00
2022-08-30T04:57:33.908Z,9.50
2022-08-30T04:58:34.268Z,5.00
2022-08-30T04:59:34.583Z,6.30
2022-08-30T05:00:34.917Z,9.40
2022-08-30T05:01:44.725Z,5.40
2022-08-30T05:02:36.718Z,6.80
2022-08-30T05:03:35.740Z,6.00
2022-08-30T05:04:36.020Z,8.90
2022-08-30T05:05:36.344Z,8.80
2022-08-30T05:06:36.699Z,7.80
2022-08-30T05:07:36.986Z,9.20
2022-08-30T05:08:37.350Z,5.60
2022-08-30T05:09:37.690Z,6.90
2022-08-30T05:10:37.999Z,6.30
2022-08-30T05:11:38.224Z,6.00
2022-08-30T05:12:38.824Z,11.90
2022-08-30T05:13:38.840Z,5.80
2022-08-30T05:14:39.335Z,10.40
2022-08-30T05:15:39.359Z,7.50
2022-08-30T05:16:39.820Z,5.90
2022-08-30T05:17:39.996Z,6.30
2022-08-30T05:18:40.249Z,8.40
2022-08-30T05:19:40.570Z,6.50
2022-08-30T05:20:40.866Z,8.20
2022-08-30T05:21:41.426Z,8.20
2022-08-30T05:22:41.478Z,7.50
2022-08-30T05:23:41.790Z,13.30
2022-08-30T05:24:42.119Z,9.90
2022-08-30T05:25:42.424Z,9.70
2022-08-30T05:26:42.845Z,12.60
2022-08-30T05:27:43.040Z,9.80
2022-08-30T05:28:43.273Z,10.60
2022-08-30T05:29:43.518Z,12.50
2022-08-30T05:30:43.861Z,7.90
2022-08-30T05:31:44.220Z,7.20
2022-08-30T05:32:44.377Z,8.90
2022-08-30T05:33:44.731Z,6.50
2022-08-30T05:34:45.082Z,7.20
2022-08-30T05:35:45.391Z,9.00
2022-08-30T05:36:45.642Z,7.80
2022-08-30T05:37:45.937Z,6.00
2022-08-30T05:38:46.302Z,9.50
2022-08-30T05:39:51.763Z,7.90
2022-08-30T05:40:47.923Z,7.30
2022-08-30T05:41:47.180Z,6.70
2022-08-30T05:42:47.534Z,6.60
2022-08-30T05:43:47.839Z,7.60
2022-08-30T05:44:48.051Z,7.10
2022-08-30T05:45:48.371Z,6.30
2022-08-30T05:46:48.742Z,7.50
2022-08-30T05:47:49.053Z,7.30
2022-08-30T05:48:49.678Z,6.20
2022-08-30T05:49:49.735Z,5.90
2022-08-30T05:50:50.045Z,6.40
2022-08-30T05:51:50.404Z,9.50
2022-08-30T05:52:50.699Z,10.30
2022-08-30T05:53:51.031Z,7.10
2022-08-30T05:54:51.373Z,7.20
2022-08-30T05:55:51.747Z,7.00
2022-08-30T05:56:52.040Z,7.50
2022-08-30T05:57:52.380Z,9.00
2022-08-30T05:58:52.711Z,11.30
2022-08-30T05:59:52.962Z,6.80
2022-08-30T06:00:53.298Z,6.00
2022-08-30T06:01:53.643Z,13.90
2022-08-30T06:02:53.882Z,6.10
2022-08-30T06:03:54.183Z,8.00
2022-08-30T06:04:54.434Z,5.90
2022-08-30T06:05:54.756Z,12.60
2022-08-30T06:06:55.005Z,14.80
2022-08-30T06:07:55.233Z,11.90
2022-08-30T06:08:55.474Z,12.30
2022-08-30T06:09:55.732Z,11.10
2022-08-30T06:10:55.981Z,10.60
2022-08-30T06:11:56.237Z,8.70
2022-08-30T06:12:56.546Z,6.90
2022-08-30T06:13:56.809Z,6.90
2022-08-30T06:14:57.111Z,10.00
2022-08-30T06:15:57.384Z,6.80
2022-08-30T06:16:57.712Z,8.30
2022-08-30T06:17:57.968Z,7.00
2022-08-30T06:18:58.200Z,9.00
2022-08-30T06:19:58.446Z,11.10
2022-08-30T06:20:58.693Z,8.10
2022-08-30T06:21:58.958Z,8.70
2022-08-30T06:22:59.277Z,7.70
2022-08-30T06:23:59.594Z,6.20
2022-08-30T06:24:59.836Z,8.10
2022-08-30T06:26:00.071Z,6.20
2022-08-30T06:27:00.335Z,5.50
2022-08-30T06:28:00.665Z,7.00
2022-08-30T06:29:00.914Z,6.30
2022-08-30T06:30:01.167Z,8.40
2022-08-30T06:31:01.487Z,8.00
2022-08-30T06:32:01.733Z,6.80
2022-08-30T06:33:01.954Z,6.40
2022-08-30T06:36:23.687Z,13.30
2022-08-30T06:37:29.292Z,13.10
2022-08-30T06:38:25.263Z,11.20
2022-08-30T06:39:24.819Z,14.60
2022-08-30T06:40:24.829Z,16.90
2022-08-30T06:41:25.036Z,11.80
2022-08-30T06:42:25.318Z,21.80
2022-08-30T06:43:25.555Z,14.70
2022-08-30T06:44:25.794Z,17.30
2022-08-30T06:45:26.074Z,18.20
2022-08-30T06:46:26.431Z,14.90
2022-08-30T06:47:26.670Z,25.00
2022-08-30T06:48:26.881Z,14.80
2022-08-30T06:49:27.155Z,15.80
2022-08-30T06:50:27.402Z,19.50
2022-08-30T06:51:27.663Z,23.50
2022-08-30T06:52:27.953Z,21.20
2022-08-30T06:53:28.273Z,19.90
2022-08-30T06:54:28.536Z,18.00
2022-08-30T06:55:28.756Z,17.20
2022-08-30T06:56:31.125Z,18.10
2022-08-30T06:57:29.345Z,18.50
2022-08-30T06:58:29.582Z,19.80
2022-08-30T06:59:29.837Z,18.80
2022-08-30T07:00:30.094Z,16.20
2022-08-30T07:01:30.406Z,16.00
2022-08-30T07:02:30.679Z,16.90
2022-08-30T07:03:30.888Z,17.50
2022-08-30T07:04:31.143Z,19.20
2022-08-30T07:05:31.364Z,11.60
2022-08-30T07:06:31.638Z,9.10
2022-08-30T07:07:31.916Z,12.70
2022-08-30T07:08:32.148Z,17.80
2022-08-30T07:10:32.735Z,19.20
2022-08-30T07:11:33.000Z,13.40
2022-08-30T07:12:33.265Z,13.00
2022-08-30T07:13:33.516Z,18.40
2022-08-30T07:14:33.800Z,15.20
2022-08-30T07:15:34.019Z,21.70
2022-08-30T07:16:34.290Z,22.10
2022-08-30T07:17:35.042Z,22.80
2022-08-30T07:18:34.819Z,18.50
2022-08-30T07:19:35.092Z,24.20
2022-08-30T07:20:40.657Z,29.00
2022-08-30T07:21:36.698Z,17.00
2022-08-30T07:22:35.971Z,18.80
2022-08-30T07:23:36.282Z,21.80
2022-08-30T07:24:36.560Z,16.50
2022-08-30T07:25:36.770Z,18.90
2022-08-30T07:26:37.056Z,17.90
2022-08-30T07:27:37.483Z,18.00
2022-08-30T07:28:37.557Z,21.00
2022-08-30T07:29:37.780Z,16.20
2022-08-30T07:30:38.049Z,15.20
2022-08-30T07:31:38.310Z,10.40
2022-08-30T07:32:38.590Z,12.90
2022-08-30T07:33:38.810Z,12.50
2022-08-30T07:34:39.078Z,12.20
2022-08-30T07:35:39.301Z,7.60
2022-08-30T07:36:39.544Z,7.40
2022-08-30T07:37:39.797Z,11.20
2022-08-30T07:38:40.135Z,13.70
2022-08-30T07:39:44.568Z,8.70
2022-08-30T07:40:41.719Z,8.00
2022-08-30T07:41:40.942Z,10.10
2022-08-30T07:42:41.222Z,7.60
2022-08-30T07:43:41.539Z,11.60
2022-08-30T07:44:41.795Z,13.80
2022-08-30T07:45:42.031Z,9.00
2022-08-30T07:46:42.338Z,8.40
2022-08-30T07:47:42.586Z,14.50
2022-08-30T07:48:42.813Z,8.60
2022-08-30T07:49:43.174Z,11.50
2022-08-30T07:50:43.415Z,11.00
2022-08-30T07:51:43.645Z,8.30
2022-08-30T07:52:43.875Z,9.80
2022-08-30T07:53:44.185Z,8.80
2022-08-30T07:54:44.420Z,11.30
2022-08-30T07:55:44.759Z,14.30
2022-08-30T07:59:04.421Z,21.00
2022-08-30T08:00:04.675Z,20.30
2022-08-30T08:01:04.947Z,14.20
2022-08-30T08:02:05.251Z,12.80
2022-08-30T08:03:05.519Z,19.40
2022-08-30T08:04:05.745Z,18.30
2022-08-30T08:05:05.990Z,16.50
2022-08-30T08:06:06.233Z,17.40
2022-08-30T08:07:06.457Z,20.30
2022-08-30T08:08:06.720Z,19.70
2022-08-30T08:09:06.988Z,21.90
2022-08-30T08:10:07.191Z,18.90
2022-08-30T08:11:07.430Z,18.20
2022-08-30T08:12:07.699Z,18.00
2022-08-30T08:13:14.941Z,16.20
2022-08-30T08:14:08.274Z,19.90
2022-08-30T08:15:09.070Z,20.40
2022-08-30T08:16:08.781Z,22.60
2022-08-30T08:17:09.002Z,16.10
2022-08-30T08:18:09.311Z,15.90
2022-08-30T08:19:09.554Z,10.70
2022-08-30T08:20:09.854Z,13.60
2022-08-30T08:21:10.096Z,12.00
2022-08-30T08:22:25.751Z,11.90
2022-08-30T08:23:11.647Z,15.10
2022-08-30T08:24:10.938Z,12.10
2022-08-30T08:25:11.148Z,13.10
2022-08-30T08:26:11.418Z,13.10
2022-08-30T08:27:11.694Z,11.20
2022-08-30T08:28:11.925Z,13.30
2022-08-30T08:29:12.198Z,12.10
2022-08-30T08:30:12.428Z,14.30
2022-08-30T08:31:12.806Z,9.10
2022-08-30T08:32:13.000Z,10.80
2022-08-30T08:33:13.248Z,11.90
2022-08-30T08:34:13.534Z,15.20
2022-08-30T08:35:13.727Z,14.00
2022-08-30T08:36:13.966Z,18.10
2022-08-30T08:37:14.220Z,16.40
2022-08-30T08:38:14.460Z,17.50
2022-08-30T08:39:14.751Z,14.10
2022-08-30T08:40:15.017Z,10.80
2022-08-30T08:41:15.790Z,11.80
2022-08-30T08:42:15.649Z,8.70
2022-08-30T08:43:15.974Z,10.10
2022-08-30T08:44:16.309Z,10.50
2022-08-30T08:45:16.548Z,10.50
2022-08-30T08:46:16.998Z,11.30
2022-08-30T08:47:17.137Z,8.00
2022-08-30T08:48:17.535Z,7.40
2022-08-30T08:49:17.673Z,6.50
2022-08-30T08:50:18.492Z,9.00
2022-08-30T08:51:18.220Z,10.10
2022-08-30T08:52:18.478Z,10.00
2022-08-30T08:53:36.003Z,7.90
2022-08-30T08:54:20.034Z,6.80
2022-08-30T08:55:19.278Z,10.10
2022-08-30T08:56:19.532Z,7.60
2022-08-30T08:57:24.489Z,8.60
2022-08-30T08:58:21.030Z,7.30
2022-08-30T08:59:20.282Z,8.70
2022-08-30T09:00:20.533Z,8.70
2022-08-30T09:01:20.911Z,8.60
2022-08-30T09:02:21.091Z,7.70
2022-08-30T09:03:21.460Z,6.30
2022-08-30T09:04:21.692Z,9.70
2022-08-30T09:05:21.955Z,10.60
2022-08-30T09:06:22.142Z,6.60
2022-08-30T09:07:22.504Z,5.40
2022-08-30T09:08:22.735Z,6.20
2022-08-30T09:09:23.000Z,6.60
2022-08-30T09:10:40.389Z,6.80
2022-08-30T09:11:24.760Z,5.80
2022-08-30T09:12:23.937Z,7.30
2022-08-30T09:13:24.177Z,6.60
2022-08-30T09:14:24.503Z,5.40
2022-08-30T09:15:25.858Z,10.00
2022-08-30T09:16:25.108Z,8.10
2022-08-30T09:17:25.302Z,6.90
2022-08-30T09:18:25.574Z,7.00
2022-08-30T09:19:25.776Z,8.00
2022-08-30T09:20:25.998Z,7.90
2022-08-30T09:21:26.224Z,8.10
2022-08-30T09:22:26.530Z,9.30
2022-08-30T09:23:26.780Z,9.40
2022-08-30T09:24:27.106Z,8.50
2022-08-30T09:25:27.436Z,10.10
2022-08-30T09:26:27.780Z,14.00
2022-08-30T09:27:27.999Z,8.20
2022-08-30T09:28:28.241Z,9.80
2022-08-30T09:29:28.570Z,12.80
2022-08-30T09:30:28.780Z,11.00
2022-08-30T09:31:29.069Z,9.80
2022-08-30T09:32:29.267Z,10.60
2022-08-30T09:33:29.520Z,8.60
2022-08-30T09:34:29.856Z,7.80
2022-08-30T09:35:30.082Z,10.30
2022-08-30T09:36:30.336Z,9.00
2022-08-30T09:37:30.583Z,9.40
2022-08-30T09:38:30.909Z,8.50
2022-08-30T09:39:31.265Z,9.00
2022-08-30T09:40:31.559Z,10.00
2022-08-30T09:41:31.753Z,9.10
2022-08-30T09:42:31.989Z,10.30
2022-08-30T09:43:32.330Z,5.90
2022-08-30T09:44:53.590Z,7.30
2022-08-30T09:45:32.907Z,8.60
2022-08-30T09:46:33.154Z,6.60
2022-08-30T09:47:33.454Z,6.20
2022-08-30T09:48:33.632Z,7.20
2022-08-30T09:49:33.954Z,8.20
2022-08-30T09:50:34.139Z,6.60
2022-08-30T09:51:34.383Z,7.10
2022-08-30T09:52:34.713Z,3.80
2022-08-30T09:53:34.946Z,7.10
2022-08-30T09:54:35.214Z,6.80
2022-08-30T09:55:35.437Z,6.00
2022-08-30T09:56:35.741Z,8.80
2022-08-30T09:57:36.019Z,7.40
2022-08-30T09:58:36.200Z,7.00
2022-08-30T09:59:36.465Z,6.40
2022-08-30T10:00:36.763Z,8.10
2022-08-30T10:01:37.143Z,7.40
2022-08-30T10:02:37.445Z,7.20
2022-08-30T10:03:40.514Z,5.00
2022-08-30T10:04:38.058Z,5.50
2022-08-30T10:05:38.342Z,4.40
2022-08-30T10:06:38.655Z,6.10
2022-08-30T10:07:38.896Z,4.70
2022-08-30T10:08:39.176Z,5.80
2022-08-30T10:09:39.537Z,6.70
2022-08-30T10:10:44.008Z,5.00
2022-08-30T10:11:41.006Z,5.40
2022-08-30T10:12:40.260Z,5.60
2022-08-30T10:13:40.533Z,7.60
2022-08-30T10:14:40.754Z,6.70
2022-08-30T10:15:40.989Z,7.30
2022-08-30T10:16:41.357Z,8.60
2022-08-30T10:17:41.689Z,5.40
2022-08-30T10:18:41.977Z,7.60
2022-08-30T10:19:42.360Z,8.60
2022-08-30T10:20:42.657Z,6.80
2022-08-30T10:21:42.919Z,6.30
2022-08-30T10:22:43.236Z,4.60
2022-08-30T10:23:43.569Z,5.50
2022-08-30T10:24:43.942Z,5.80
2022-08-30T10:25:44.077Z,7.10
2022-08-30T10:26:44.371Z,7.50
2022-08-30T10:27:44.599Z,5.90
2022-08-30T10:28:44.831Z,5.80
2022-08-30T10:29:45.108Z,8.00
2022-08-30T10:30:45.360Z,5.00
2022-08-30T10:31:45.666Z,6.80
2022-08-30T10:32:45.900Z,5.50
2022-08-30T10:33:46.121Z,4.50
2022-08-30T10:34:46.357Z,5.80
2022-08-30T10:35:46.591Z,6.40
2022-08-30T10:36:46.899Z,8.80
2022-08-30T10:37:47.145Z,5.90
2022-08-30T10:38:47.428Z,5.30
2022-08-30T10:39:47.799Z,3.30
2022-08-30T10:40:48.134Z,4.40
2022-08-30T10:41:48.332Z,4.60
2022-08-30T10:42:48.591Z,5.70
2022-08-30T10:43:50.917Z,6.30
2022-08-30T10:44:49.153Z,4.60
2022-08-30T10:45:49.354Z,5.10
2022-08-30T10:46:49.583Z,4.60
2022-08-30T10:47:49.812Z,3.60
2022-08-30T10:48:50.069Z,5.70
2022-08-30T10:49:50.299Z,7.70
2022-08-30T10:50:50.610Z,6.50
2022-08-30T10:51:50.918Z,7.40
2022-08-30T10:52:51.292Z,5.50
2022-08-30T10:53:51.591Z,9.10
2022-08-30T10:54:51.835Z,7.30
2022-08-30T10:55:52.072Z,7.00
2022-08-30T10:56:52.383Z,6.70
2022-08-30T10:57:52.732Z,5.40
2022-08-30T10:58:52.972Z,6.00
2022-08-30T10:59:53.232Z,6.00
2022-08-30T11:00:53.607Z,5.90
2022-08-30T11:01:53.818Z,9.50
2022-08-30T11:02:54.033Z,4.30
2022-08-30T11:03:54.290Z,7.70
2022-08-30T11:04:54.621Z,6.90
2022-08-30T11:05:54.948Z,6.60
2022-08-30T11:06:55.255Z,6.60
2022-08-30T11:07:55.564Z,5.70
2022-08-30T11:08:55.871Z,7.30
2022-08-30T11:09:56.114Z,6.30
2022-08-30T11:10:56.437Z,4.30
2022-08-30T11:11:56.669Z,5.70
2022-08-30T11:12:56.887Z,5.70
2022-08-30T11:13:58.247Z,6.70
2022-08-30T11:14:57.435Z,6.60
2022-08-30T11:15:57.679Z,6.30
2022-08-30T11:16:57.929Z,4.60
2022-08-30T11:17:58.256Z,6.20
2022-08-30T11:18:58.567Z,5.90
2022-08-30T11:19:58.836Z,5.80
2022-08-30T11:20:59.038Z,6.00
2022-08-30T11:21:59.401Z,5.10
2022-08-30T11:22:59.629Z,5.80
2022-08-30T11:23:59.861Z,3.90
2022-08-30T11:25:00.116Z,6.70
2022-08-30T11:26:00.440Z,5.30
2022-08-30T11:27:00.738Z,3.70
2022-08-30T11:28:01.082Z,3.50
2022-08-30T11:29:01.416Z,6.40
2022-08-30T11:30:01.641Z,5.80
2022-08-30T11:31:01.972Z,4.20
2022-08-30T11:32:02.189Z,4.20
2022-08-30T11:33:02.523Z,8.50
2022-08-30T11:34:02.763Z,7.80
2022-08-30T11:35:03.013Z,6.00
2022-08-30T11:36:03.262Z,4.60
2022-08-30T11:37:03.583Z,6.60
2022-08-30T11:38:04.884Z,6.20
2022-08-30T11:39:04.138Z,6.40
2022-08-30T11:40:04.383Z,5.50
2022-08-30T11:41:04.708Z,7.20
2022-08-30T11:42:04.932Z,5.30
2022-08-30T11:43:05.161Z,4.70
2022-08-30T11:44:05.483Z,6.50
2022-08-30T11:45:05.742Z,4.10
2022-08-30T11:46:10.354Z,6.70
2022-08-30T11:47:07.361Z,7.40
2022-08-30T11:48:06.686Z,9.10
2022-08-30T11:49:06.925Z,5.70
2022-08-30T11:50:09.911Z,6.80
2022-08-30T11:51:08.521Z,4.10
2022-08-30T11:52:27.919Z,5.30
2022-08-30T11:53:09.172Z,4.50
2022-08-30T11:54:08.323Z,5.60
2022-08-30T11:55:08.704Z,6.90
2022-08-30T11:56:08.994Z,3.40
2022-08-30T11:57:09.234Z,5.70
2022-08-30T11:58:11.618Z,4.10
2022-08-30T11:59:09.922Z,4.50
2022-08-30T12:00:10.124Z,7.00
2022-08-30T12:01:31.836Z,4.70
2022-08-30T12:02:11.697Z,4.30
2022-08-30T12:03:10.936Z,4.70
2022-08-30T12:04:15.267Z,3.60
2022-08-30T12:05:11.446Z,6.30
2022-08-30T12:06:11.686Z,3.60
2022-08-30T12:07:12.004Z,5.20
2022-08-30T12:08:12.445Z,4.30
2022-08-30T12:09:12.639Z,5.60
2022-08-30T12:10:12.876Z,3.30
2022-08-30T12:11:13.126Z,5.70
2022-08-30T12:12:13.426Z,6.40
2022-08-30T12:13:13.666Z,3.80
2022-08-30T12:14:17.294Z,4.30
2022-08-30T12:15:14.156Z,3.90
2022-08-30T12:16:14.490Z,5.00
2022-08-30T12:17:14.721Z,4.70
2022-08-30T12:18:15.705Z,4.30
2022-08-30T12:19:15.255Z,5.20
2022-08-30T12:20:15.495Z,5.60
2022-08-30T12:21:15.717Z,5.50
2022-08-30T12:22:15.972Z,4.30
2022-08-30T12:23:16.240Z,5.60
2022-08-30T12:24:16.518Z,5.70
2022-08-30T12:25:16.760Z,6.00
2022-08-30T12:26:17.019Z,7.10
2022-08-30T12:27:17.469Z,4.60
2022-08-30T12:28:17.683Z,6.30
2022-08-30T12:29:18.026Z,8.40
2022-08-30T12:30:18.217Z,5.40
2022-08-30T12:31:18.569Z,6.80
2022-08-30T12:32:18.778Z,5.50
2022-08-30T12:33:19.093Z,5.60
2022-08-30T12:34:19.295Z,6.60
2022-08-30T12:35:19.545Z,5.10
2022-08-30T12:36:19.765Z,6.80
2022-08-30T12:37:19.995Z,6.40
2022-08-30T12:38:25.593Z,6.20
2022-08-30T12:39:21.666Z,5.40
2022-08-30T12:40:21.008Z,5.90
2022-08-30T12:41:21.192Z,4.00
2022-08-30T12:42:21.427Z,4.90
2022-08-30T12:43:21.675Z,4.50
2022-08-30T12:44:21.923Z,5.10
2022-08-30T12:45:22.428Z,6.60
2022-08-30T12:46:22.605Z,7.50
2022-08-30T12:47:22.823Z,8.30
2022-08-30T12:48:23.090Z,8.80
2022-08-30T12:49:23.284Z,8.60
2022-08-30T12:50:23.537Z,8.50
2022-08-30T12:51:23.855Z,6.10
2022-08-30T12:52:24.075Z,5.90
2022-08-30T12:53:24.340Z,9.00
2022-08-30T12:54:24.651Z,6.60
2022-08-30T12:55:24.896Z,6.20
2022-08-30T12:56:40.550Z,5.00
2022-08-30T12:57:35.246Z,6.20
2022-08-30T12:58:26.770Z,6.60
2022-08-30T12:59:26.019Z,4.00
2022-08-30T13:00:26.287Z,5.40
2022-08-30T13:01:26.701Z,5.80
2022-08-30T13:02:27.042Z,5.40
2022-08-30T13:03:27.607Z,5.70
2022-08-30T13:04:27.485Z,4.70
2022-08-30T13:05:27.809Z,4.80
2022-08-30T13:06:28.079Z,4.80
2022-08-30T13:07:28.270Z,7.30
2022-08-30T13:08:28.569Z,5.40
2022-08-30T13:09:32.671Z,6.00
2022-08-30T13:10:29.142Z,3.70
2022-08-30T13:11:29.640Z,5.50
2022-08-30T13:12:30.314Z,4.70
2022-08-30T13:13:29.969Z,5.00
2022-08-30T13:14:30.248Z,5.60
2022-08-30T13:15:30.479Z,5.80
2022-08-30T13:16:30.829Z,4.70
2022-08-30T13:17:31.023Z,4.00
2022-08-30T13:18:31.321Z,5.80
2022-08-30T13:19:31.575Z,6.40
2022-08-30T13:20:31.847Z,5.70
2022-08-30T13:21:32.198Z,4.80
2022-08-30T13:22:32.362Z,5.20